createdAt,value
2018-03-30T00:00:58.916Z,999.80
2018-03-30T00:01:58.905Z,999.79
2018-03-30T00:02:58.893Z,999.77
2018-03-30T00:03:58.884Z,999.78
2018-03-30T00:04:58.868Z,999.78
2018-03-30T00:05:58.855Z,999.77
2018-03-30T00:06:58.845Z,999.76
2018-03-30T00:07:58.831Z,999.75
2018-03-30T00:08:58.824Z,999.78
2018-03-30T00:09:58.811Z,999.80
2018-03-30T00:10:58.802Z,999.80
2018-03-30T00:11:58.788Z,999.73
2018-03-30T00:12:58.782Z,999.76
2018-03-30T00:13:58.763Z,999.75
2018-03-30T00:14:58.754Z,999.71
2018-03-30T00:15:58.740Z,999.69
2018-03-30T00:16:58.730Z,999.68
2018-03-30T00:17:58.714Z,999.66
2018-03-30T00:18:58.704Z,999.63
2018-03-30T00:19:58.691Z,999.61
2018-03-30T00:20:58.684Z,999.61
2018-03-30T00:21:58.675Z,999.59
2018-03-30T00:22:58.657Z,999.56
2018-03-30T00:23:58.644Z,999.57
2018-03-30T00:24:58.639Z,999.55
2018-03-30T00:25:58.618Z,999.52
2018-03-30T00:26:58.608Z,999.51
2018-03-30T00:27:58.599Z,999.52
2018-03-30T00:28:58.588Z,999.54
2018-03-30T00:29:58.580Z,999.54
2018-03-30T00:30:58.563Z,999.51
2018-03-30T00:31:58.547Z,999.48
2018-03-30T00:32:58.536Z,999.48
2018-03-30T00:33:58.529Z,999.46
2018-03-30T00:34:58.514Z,999.43
2018-03-30T00:35:58.499Z,999.44
2018-03-30T00:36:58.495Z,999.41
2018-03-30T00:37:58.479Z,999.44
2018-03-30T00:38:58.466Z,999.47
2018-03-30T00:39:58.455Z,999.46
2018-03-30T00:40:58.439Z,999.43
2018-03-30T00:41:58.434Z,999.44
2018-03-30T00:42:58.421Z,999.44
2018-03-30T00:43:58.405Z,999.42
2018-03-30T00:44:58.395Z,999.40
2018-03-30T00:45:58.382Z,999.39
2018-03-30T00:46:58.373Z,999.42
2018-03-30T00:47:58.362Z,999.36
2018-03-30T00:48:58.348Z,999.34
2018-03-30T00:49:58.335Z,999.32
2018-03-30T00:50:58.329Z,999.30
2018-03-30T00:51:58.311Z,999.28
2018-03-30T00:52:58.296Z,999.25
2018-03-30T00:53:58.288Z,999.21
2018-03-30T00:54:58.275Z,999.22
2018-03-30T00:55:58.275Z,999.22
2018-03-30T00:56:58.256Z,999.17
2018-03-30T00:57:58.243Z,999.17
2018-03-30T00:58:58.226Z,999.16
2018-03-30T00:59:58.215Z,999.18
2018-03-30T01:00:58.207Z,999.13
2018-03-30T01:01:58.193Z,999.16
2018-03-30T01:02:58.182Z,999.15
2018-03-30T01:03:58.171Z,999.18
2018-03-30T01:04:58.157Z,999.15
2018-03-30T01:05:58.142Z,999.16
2018-03-30T01:06:58.129Z,999.18
2018-03-30T01:07:58.124Z,999.14
2018-03-30T01:08:58.121Z,999.20
2018-03-30T01:09:58.100Z,999.15
2018-03-30T01:10:58.083Z,999.16
2018-03-30T01:11:58.072Z,999.17
2018-03-30T01:12:58.060Z,999.22
2018-03-30T01:13:58.045Z,999.17
2018-03-30T01:14:58.035Z,999.18
2018-03-30T01:15:58.024Z,999.15
2018-03-30T01:16:58.016Z,999.17
2018-03-30T01:17:58.003Z,999.13
2018-03-30T01:18:57.993Z,999.16
2018-03-30T01:19:57.980Z,999.19
2018-03-30T01:20:57.965Z,999.12
2018-03-30T01:21:57.956Z,999.11
2018-03-30T01:22:57.945Z,999.16
2018-03-30T01:23:57.931Z,999.15
2018-03-30T01:24:57.915Z,999.12
2018-03-30T01:25:57.909Z,999.18
2018-03-30T01:26:57.892Z,999.17
2018-03-30T01:27:57.883Z,999.15
2018-03-30T01:28:57.870Z,999.13
2018-03-30T01:29:57.860Z,999.13
2018-03-30T01:30:57.849Z,999.09
2018-03-30T01:31:57.834Z,999.11
2018-03-30T01:32:57.819Z,999.03
2018-03-30T01:33:57.810Z,999.05
2018-03-30T01:34:57.805Z,999.02
2018-03-30T01:35:57.793Z,999.02
2018-03-30T01:36:57.776Z,999.01
2018-03-30T01:37:57.762Z,998.97
2018-03-30T01:38:57.748Z,998.97
2018-03-30T01:39:57.736Z,998.97
2018-03-30T01:40:57.726Z,998.98
2018-03-30T01:41:57.716Z,998.96
2018-03-30T01:42:57.701Z,999.00
2018-03-30T01:43:57.690Z,998.98
2018-03-30T01:44:57.702Z,999.00
2018-03-30T01:45:57.684Z,998.97
2018-03-30T01:46:57.659Z,998.97
2018-03-30T01:47:57.660Z,998.96
2018-03-30T01:48:57.648Z,998.99
2018-03-30T01:49:57.633Z,998.96
2018-03-30T01:50:57.613Z,998.95
2018-03-30T01:51:57.599Z,998.96
2018-03-30T01:52:57.594Z,998.96
2018-03-30T01:53:57.580Z,998.96
2018-03-30T01:54:57.567Z,998.89
2018-03-30T01:55:57.551Z,998.93
2018-03-30T01:56:57.553Z,998.94
2018-03-30T01:57:57.549Z,998.92
2018-03-30T01:58:57.578Z,998.89
2018-03-30T01:59:57.518Z,998.88
2018-03-30T02:00:57.494Z,998.92
2018-03-30T02:01:57.496Z,998.92
2018-03-30T02:02:57.468Z,998.91
2018-03-30T02:03:57.456Z,998.86
2018-03-30T02:04:57.448Z,998.88
2018-03-30T02:05:57.437Z,998.84
2018-03-30T02:06:57.423Z,998.88
2018-03-30T02:07:57.416Z,998.89
2018-03-30T02:08:57.397Z,998.85
2018-03-30T02:09:57.396Z,998.80
2018-03-30T02:10:57.374Z,998.82
2018-03-30T02:11:57.377Z,998.85
2018-03-30T02:12:57.363Z,998.87
2018-03-30T02:13:57.339Z,998.85
2018-03-30T02:14:57.326Z,998.86
2018-03-30T02:15:57.381Z,998.86
2018-03-30T02:16:57.303Z,998.86
2018-03-30T02:17:57.293Z,998.83
2018-03-30T02:18:57.283Z,998.83
2018-03-30T02:19:57.278Z,998.84
2018-03-30T02:20:57.267Z,998.82
2018-03-30T02:21:57.256Z,998.80
2018-03-30T02:22:57.230Z,998.79
2018-03-30T02:23:57.233Z,998.80
2018-03-30T02:24:57.218Z,998.78
2018-03-30T02:25:57.207Z,998.72
2018-03-30T02:26:57.185Z,998.73
2018-03-30T02:27:57.173Z,998.72
2018-03-30T02:28:57.159Z,998.72
2018-03-30T02:29:57.162Z,998.67
2018-03-30T02:30:57.148Z,998.71
2018-03-30T02:31:57.125Z,998.69
2018-03-30T02:32:57.115Z,998.68
2018-03-30T02:33:57.100Z,998.67
2018-03-30T02:34:57.087Z,998.63
2018-03-30T02:35:57.078Z,998.64
2018-03-30T02:36:57.064Z,998.63
2018-03-30T02:37:57.066Z,998.60
2018-03-30T02:38:57.094Z,998.60
2018-03-30T02:39:57.026Z,998.55
2018-03-30T02:40:57.019Z,998.59
2018-03-30T02:41:57.018Z,998.59
2018-03-30T02:42:57.009Z,998.56
2018-03-30T02:43:56.979Z,998.59
2018-03-30T02:44:56.972Z,998.58
2018-03-30T02:45:56.964Z,998.60
2018-03-30T02:46:56.948Z,998.55
2018-03-30T02:47:56.937Z,998.56
2018-03-30T02:48:56.934Z,998.57
2018-03-30T02:49:56.910Z,998.57
2018-03-30T02:50:56.900Z,998.56
2018-03-30T02:51:56.900Z,998.55
2018-03-30T02:52:56.872Z,998.57
2018-03-30T02:53:56.861Z,998.58
2018-03-30T02:54:56.861Z,998.57
2018-03-30T02:55:56.860Z,998.56
2018-03-30T02:56:56.829Z,998.56
2018-03-30T02:57:56.816Z,998.57
2018-03-30T02:58:56.809Z,998.56
2018-03-30T02:59:56.790Z,998.53
2018-03-30T03:00:56.786Z,998.57
2018-03-30T03:01:56.802Z,998.58
2018-03-30T03:02:56.757Z,998.51
2018-03-30T03:03:56.750Z,998.53
2018-03-30T03:04:56.733Z,998.52
2018-03-30T03:05:56.734Z,998.51
2018-03-30T03:06:56.712Z,998.52
2018-03-30T03:07:56.700Z,998.54
2018-03-30T03:08:56.702Z,998.55
2018-03-30T03:09:56.680Z,998.55
2018-03-30T03:10:56.663Z,998.50
2018-03-30T03:11:56.650Z,998.47
2018-03-30T03:12:56.637Z,998.46
2018-03-30T03:13:56.639Z,998.44
2018-03-30T03:14:56.620Z,998.43
2018-03-30T03:15:56.618Z,998.39
2018-03-30T03:16:56.594Z,998.46
2018-03-30T03:17:56.582Z,998.42
2018-03-30T03:18:56.570Z,998.41
2018-03-30T03:19:56.563Z,998.41
2018-03-30T03:20:56.544Z,998.40
2018-03-30T03:21:56.557Z,998.43
2018-03-30T03:22:56.532Z,998.44
2018-03-30T03:23:56.523Z,998.39
2018-03-30T03:24:56.520Z,998.38
2018-03-30T03:25:56.490Z,998.35
2018-03-30T03:26:56.477Z,998.35
2018-03-30T03:27:56.474Z,998.41
2018-03-30T03:28:56.452Z,998.40
2018-03-30T03:29:56.453Z,998.39
2018-03-30T03:30:56.431Z,998.36
2018-03-30T03:31:56.427Z,998.36
2018-03-30T03:32:56.419Z,998.31
2018-03-30T03:33:56.396Z,998.35
2018-03-30T03:34:56.393Z,998.34
2018-03-30T03:35:56.368Z,998.31
2018-03-30T03:36:56.360Z,998.29
2018-03-30T03:37:56.359Z,998.28
2018-03-30T03:38:56.354Z,998.31
2018-03-30T03:39:56.323Z,998.31
2018-03-30T03:40:56.310Z,998.31
2018-03-30T03:41:56.312Z,998.27
2018-03-30T03:42:56.287Z,998.16
2018-03-30T03:43:56.287Z,998.18
2018-03-30T03:44:56.264Z,998.19
2018-03-30T03:45:56.265Z,998.21
2018-03-30T03:46:56.246Z,998.22
2018-03-30T03:47:56.230Z,998.23
2018-03-30T03:48:56.222Z,998.19
2018-03-30T03:49:56.227Z,998.20
2018-03-30T03:50:56.194Z,998.19
2018-03-30T03:51:56.185Z,998.13
2018-03-30T03:52:56.173Z,998.06
2018-03-30T03:53:56.165Z,998.13
2018-03-30T03:54:56.159Z,998.09
2018-03-30T03:55:56.149Z,998.08
2018-03-30T03:56:56.127Z,998.05
2018-03-30T03:57:56.124Z,998.07
2018-03-30T03:58:56.104Z,998.15
2018-03-30T03:59:56.091Z,998.08
2018-03-30T04:00:56.078Z,998.09
2018-03-30T04:01:56.065Z,998.13
2018-03-30T04:02:56.066Z,998.08
2018-03-30T04:03:56.061Z,998.09
2018-03-30T04:04:56.031Z,998.05
2018-03-30T04:05:56.020Z,998.02
2018-03-30T04:06:56.006Z,998.05
2018-03-30T04:07:56.006Z,998.05
2018-03-30T04:08:55.983Z,998.02
2018-03-30T04:09:55.975Z,998.02
2018-03-30T04:10:55.973Z,998.03
2018-03-30T04:11:55.969Z,998.00
2018-03-30T04:12:55.952Z,997.99
2018-03-30T04:13:55.926Z,998.04
2018-03-30T04:14:55.933Z,997.99
2018-03-30T04:15:55.913Z,997.98
2018-03-30T04:16:55.895Z,997.98
2018-03-30T04:17:55.897Z,997.94
2018-03-30T04:18:55.868Z,997.95
2018-03-30T04:19:55.868Z,997.94
2018-03-30T04:20:55.848Z,997.91
2018-03-30T04:21:55.846Z,997.97
2018-03-30T04:22:55.820Z,997.94
2018-03-30T04:23:55.805Z,997.94
2018-03-30T04:24:55.807Z,997.94
2018-03-30T04:25:55.781Z,997.90
2018-03-30T04:26:55.775Z,997.91
2018-03-30T04:27:55.771Z,997.92
2018-03-30T04:28:55.750Z,997.89
2018-03-30T04:29:55.749Z,997.81
2018-03-30T04:30:55.724Z,997.86
2018-03-30T04:31:55.779Z,997.82
2018-03-30T04:32:55.701Z,997.83
2018-03-30T04:33:55.700Z,997.82
2018-03-30T04:34:55.691Z,997.82
2018-03-30T04:35:55.666Z,997.79
2018-03-30T04:36:55.666Z,997.79
2018-03-30T04:37:55.645Z,997.80
2018-03-30T04:38:55.641Z,997.77
2018-03-30T04:39:55.619Z,997.79
2018-03-30T04:40:55.626Z,997.77
2018-03-30T04:41:55.612Z,997.77
2018-03-30T04:42:55.594Z,997.78
2018-03-30T04:43:55.596Z,997.77
2018-03-30T04:44:55.561Z,997.74
2018-03-30T04:45:55.552Z,997.76
2018-03-30T04:46:55.553Z,997.79
2018-03-30T04:47:55.524Z,997.76
2018-03-30T04:48:55.526Z,997.79
2018-03-30T04:49:55.499Z,997.78
2018-03-30T04:50:55.504Z,997.75
2018-03-30T04:51:55.482Z,997.75
2018-03-30T04:52:55.465Z,997.70
2018-03-30T04:53:55.456Z,997.71
2018-03-30T04:54:55.466Z,997.77
2018-03-30T04:55:55.430Z,997.69
2018-03-30T04:56:55.421Z,997.69
2018-03-30T04:57:55.416Z,997.69
2018-03-30T04:58:55.394Z,997.70
2018-03-30T04:59:55.381Z,997.68
2018-03-30T05:00:55.389Z,997.67
2018-03-30T05:01:55.362Z,997.67
2018-03-30T05:02:55.365Z,997.69
2018-03-30T05:03:55.335Z,997.66
2018-03-30T05:04:55.326Z,997.66
2018-03-30T05:05:55.313Z,997.65
2018-03-30T05:06:55.302Z,997.67
2018-03-30T05:07:55.291Z,997.64
2018-03-30T05:08:55.289Z,997.63
2018-03-30T05:09:55.266Z,997.66
2018-03-30T05:10:55.256Z,997.63
2018-03-30T05:11:55.242Z,997.64
2018-03-30T05:12:55.233Z,997.63
2018-03-30T05:13:55.219Z,997.66
2018-03-30T05:14:55.207Z,997.63
2018-03-30T05:15:55.194Z,997.65
2018-03-30T05:16:55.187Z,997.65
2018-03-30T05:17:55.186Z,997.64
2018-03-30T05:18:55.158Z,997.66
2018-03-30T05:19:55.161Z,997.58
2018-03-30T05:20:55.135Z,997.69
2018-03-30T05:21:55.125Z,997.65
2018-03-30T05:22:55.118Z,997.66
2018-03-30T05:23:55.113Z,997.69
2018-03-30T05:24:55.103Z,997.65
2018-03-30T05:25:55.094Z,997.69
2018-03-30T05:26:55.094Z,997.66
2018-03-30T05:27:55.054Z,997.68
2018-03-30T05:28:55.072Z,997.70
2018-03-30T05:29:55.034Z,997.76
2018-03-30T05:30:55.038Z,997.81
2018-03-30T05:31:55.007Z,997.82
2018-03-30T05:32:54.995Z,997.87
2018-03-30T05:33:54.995Z,997.99
2018-03-30T05:34:54.974Z,998.01
2018-03-30T05:35:54.960Z,998.05
2018-03-30T05:36:54.966Z,998.05
2018-03-30T05:37:54.939Z,998.06
2018-03-30T05:38:54.937Z,998.00
2018-03-30T05:39:54.919Z,997.94
2018-03-30T05:40:54.907Z,997.88
2018-03-30T05:41:54.892Z,997.87
2018-03-30T05:42:54.879Z,997.88
2018-03-30T05:43:54.881Z,997.88
2018-03-30T05:44:54.859Z,997.93
2018-03-30T05:45:54.856Z,997.97
2018-03-30T05:46:54.836Z,998.02
2018-03-30T05:47:54.833Z,998.00
2018-03-30T05:48:54.810Z,998.00
2018-03-30T05:49:54.798Z,997.99
2018-03-30T05:50:54.819Z,997.95
2018-03-30T05:51:54.785Z,997.94
2018-03-30T05:52:54.768Z,997.92
2018-03-30T05:53:54.754Z,997.87
2018-03-30T05:54:54.761Z,997.86
2018-03-30T05:55:54.730Z,997.87
2018-03-30T05:56:54.729Z,997.88
2018-03-30T05:57:54.733Z,997.87
2018-03-30T05:58:54.708Z,997.89
2018-03-30T05:59:54.683Z,997.95
2018-03-30T06:00:54.684Z,997.93
2018-03-30T06:01:54.664Z,997.97
2018-03-30T06:02:54.650Z,997.95
2018-03-30T06:03:54.654Z,997.91
2018-03-30T06:04:54.635Z,997.92
2018-03-30T06:05:54.619Z,997.92
2018-03-30T06:06:54.610Z,997.94
2018-03-30T06:07:54.595Z,997.92
2018-03-30T06:08:54.601Z,997.96
2018-03-30T06:09:54.579Z,997.99
2018-03-30T06:10:54.564Z,997.95
2018-03-30T06:11:54.558Z,997.95
2018-03-30T06:12:54.540Z,997.93
2018-03-30T06:13:54.535Z,997.98
2018-03-30T06:14:54.520Z,997.98
2018-03-30T06:15:54.510Z,997.97
2018-03-30T06:16:54.500Z,997.97
2018-03-30T06:17:54.501Z,997.94
2018-03-30T06:18:54.478Z,997.94
2018-03-30T06:19:54.465Z,997.99
2018-03-30T06:20:54.459Z,998.01
2018-03-30T06:21:54.457Z,997.94
2018-03-30T06:22:54.433Z,997.92
2018-03-30T06:23:54.432Z,997.91
2018-03-30T06:24:54.422Z,997.89
2018-03-30T06:25:54.405Z,997.89
2018-03-30T06:26:54.400Z,997.89
2018-03-30T06:27:54.378Z,997.88
2018-03-30T06:28:54.380Z,997.91
2018-03-30T06:29:54.361Z,997.92
2018-03-30T06:30:54.349Z,997.94
2018-03-30T06:31:54.336Z,997.88
2018-03-30T06:32:54.324Z,997.90
2018-03-30T06:33:54.315Z,997.92
2018-03-30T06:34:54.303Z,997.96
2018-03-30T06:35:54.290Z,997.94
2018-03-30T06:36:54.282Z,997.94
2018-03-30T06:37:54.273Z,997.97
2018-03-30T06:38:54.278Z,997.96
2018-03-30T06:39:54.272Z,997.97
2018-03-30T06:40:54.244Z,997.96
2018-03-30T06:41:54.228Z,997.99
2018-03-30T06:42:54.220Z,998.04
2018-03-30T06:43:54.213Z,998.02
2018-03-30T06:44:54.214Z,998.04
2018-03-30T06:45:54.188Z,998.03
2018-03-30T06:46:54.178Z,998.02
2018-03-30T06:47:54.168Z,998.03
2018-03-30T06:48:54.157Z,997.99
2018-03-30T06:49:54.187Z,997.99
2018-03-30T06:50:54.145Z,998.02
2018-03-30T06:51:54.135Z,998.00
2018-03-30T06:52:54.128Z,998.02
2018-03-30T06:53:54.133Z,998.00
2018-03-30T06:54:54.104Z,998.01
2018-03-30T06:55:54.101Z,998.01
2018-03-30T06:56:54.072Z,998.03
2018-03-30T06:57:54.070Z,998.01
2018-03-30T06:58:54.053Z,997.97
2018-03-30T06:59:54.055Z,997.96
2018-03-30T07:00:54.045Z,998.00
2018-03-30T07:01:54.048Z,997.97
2018-03-30T07:02:54.028Z,997.97
2018-03-30T07:03:54.000Z,997.97
2018-03-30T07:04:54.006Z,997.93
2018-03-30T07:05:53.985Z,997.96
2018-03-30T07:06:53.980Z,997.95
2018-03-30T07:07:53.961Z,997.93
2018-03-30T07:08:53.962Z,997.96
2018-03-30T07:09:53.943Z,997.93
2018-03-30T07:10:53.941Z,997.96
2018-03-30T07:11:53.920Z,997.92
2018-03-30T07:12:53.908Z,997.95
2018-03-30T07:13:53.912Z,997.97
2018-03-30T07:14:53.905Z,997.99
2018-03-30T07:15:53.882Z,997.98
2018-03-30T07:16:53.921Z,998.00
2018-03-30T07:17:53.870Z,998.00
2018-03-30T07:18:53.847Z,998.01
2018-03-30T07:19:53.836Z,998.02
2018-03-30T07:20:53.828Z,998.02
2018-03-30T07:21:53.851Z,998.01
2018-03-30T07:22:53.810Z,998.05
2018-03-30T07:23:53.796Z,998.09
2018-03-30T07:24:53.799Z,998.09
2018-03-30T07:25:53.783Z,998.03
2018-03-30T07:26:53.778Z,998.01
2018-03-30T07:27:53.768Z,998.00
2018-03-30T07:28:53.808Z,997.99
2018-03-30T07:29:53.738Z,998.04
2018-03-30T07:30:53.739Z,998.03
2018-03-30T07:31:53.733Z,998.05
2018-03-30T07:32:53.707Z,998.07
2018-03-30T07:33:53.698Z,998.02
2018-03-30T07:34:53.688Z,998.08
2018-03-30T07:35:53.718Z,998.09
2018-03-30T07:36:53.673Z,998.00
2018-03-30T07:37:53.659Z,998.00
2018-03-30T07:38:53.664Z,998.02
2018-03-30T07:39:53.652Z,998.10
2018-03-30T07:40:53.630Z,998.01
2018-03-30T07:41:53.637Z,998.05
2018-03-30T07:42:53.607Z,998.07
2018-03-30T07:43:53.602Z,998.07
2018-03-30T07:44:53.603Z,998.10
2018-03-30T07:45:53.605Z,998.07
2018-03-30T07:46:53.577Z,998.03
2018-03-30T07:47:53.566Z,997.98
2018-03-30T07:48:53.566Z,998.01
2018-03-30T07:49:53.548Z,997.99
2018-03-30T07:50:53.537Z,997.97
2018-03-30T07:51:53.542Z,997.95
2018-03-30T07:52:53.531Z,997.97
2018-03-30T07:53:53.525Z,997.97
2018-03-30T07:54:53.505Z,997.93
2018-03-30T07:55:53.507Z,997.96
2018-03-30T07:56:53.486Z,997.98
2018-03-30T07:57:53.483Z,997.94
2018-03-30T07:58:53.473Z,997.91
2018-03-30T07:59:53.463Z,997.90
2018-03-30T08:00:53.462Z,997.92
2018-03-30T08:01:53.461Z,997.94
2018-03-30T08:02:53.452Z,997.95
2018-03-30T08:03:53.450Z,997.96
2018-03-30T08:04:53.445Z,997.98
2018-03-30T08:05:53.430Z,997.93
2018-03-30T08:06:53.411Z,997.92
2018-03-30T08:07:53.403Z,997.93
2018-03-30T08:08:53.409Z,997.89
2018-03-30T08:09:53.402Z,997.84
2018-03-30T08:10:53.384Z,997.85
2018-03-30T08:11:53.375Z,997.82
2018-03-30T08:12:53.384Z,997.84
2018-03-30T08:13:53.361Z,997.84
2018-03-30T08:14:53.356Z,997.84
2018-03-30T08:15:53.400Z,997.84
2018-03-30T08:16:53.350Z,997.85
2018-03-30T08:17:53.366Z,997.83
2018-03-30T08:18:53.334Z,997.82
2018-03-30T08:19:53.331Z,997.83
2018-03-30T08:20:53.310Z,997.81
2018-03-30T08:21:53.303Z,997.81
2018-03-30T08:22:53.306Z,997.78
2018-03-30T08:23:53.299Z,997.82
2018-03-30T08:24:53.289Z,997.81
2018-03-30T08:25:53.284Z,997.79
2018-03-30T08:26:53.277Z,997.78
2018-03-30T08:27:53.271Z,997.75
2018-03-30T08:28:53.265Z,997.73
2018-03-30T08:29:53.275Z,997.67
2018-03-30T08:30:53.235Z,997.68
2018-03-30T08:31:53.238Z,997.60
2018-03-30T08:32:53.280Z,997.63
2018-03-30T08:33:53.211Z,997.65
2018-03-30T08:34:53.203Z,997.64
2018-03-30T08:35:53.208Z,997.66
2018-03-30T08:36:53.216Z,997.61
2018-03-30T08:37:53.199Z,997.60
2018-03-30T08:38:53.192Z,997.56
2018-03-30T08:39:53.211Z,997.50
2018-03-30T08:40:53.169Z,997.50
2018-03-30T08:41:53.186Z,997.48
2018-03-30T08:42:53.152Z,997.50
2018-03-30T08:43:53.133Z,997.48
2018-03-30T08:44:53.122Z,997.49
2018-03-30T08:45:53.128Z,997.48
2018-03-30T08:46:53.109Z,997.45
2018-03-30T08:47:53.114Z,997.43
2018-03-30T08:48:53.124Z,997.44
2018-03-30T08:49:53.087Z,997.45
2018-03-30T08:50:53.076Z,997.42
2018-03-30T08:51:53.113Z,997.44
2018-03-30T08:52:53.085Z,997.44
2018-03-30T08:53:53.084Z,997.43
2018-03-30T08:54:53.056Z,997.50
2018-03-30T08:55:53.048Z,997.49
2018-03-30T08:56:53.043Z,997.47
2018-03-30T08:57:53.021Z,997.45
2018-03-30T08:58:53.029Z,997.47
2018-03-30T08:59:53.005Z,997.44
2018-03-30T09:00:52.999Z,997.42
2018-03-30T09:01:52.990Z,997.41
2018-03-30T09:02:52.995Z,997.40
2018-03-30T09:03:52.976Z,997.42
2018-03-30T09:04:52.984Z,997.37
2018-03-30T09:05:52.991Z,997.35
2018-03-30T09:06:52.985Z,997.30
2018-03-30T09:07:52.948Z,997.30
2018-03-30T09:08:52.951Z,997.28
2018-03-30T09:09:52.947Z,997.26
2018-03-30T09:10:52.982Z,997.28
2018-03-30T09:11:52.930Z,997.25
2018-03-30T09:12:52.910Z,997.24
2018-03-30T09:13:52.904Z,997.22
2018-03-30T09:14:52.919Z,997.21
2018-03-30T09:15:52.890Z,997.22
2018-03-30T09:16:52.881Z,997.25
2018-03-30T09:17:52.887Z,997.23
2018-03-30T09:18:52.878Z,997.21
2018-03-30T09:19:52.872Z,997.20
2018-03-30T09:20:52.863Z,997.18
2018-03-30T09:21:52.851Z,997.14
2018-03-30T09:22:52.839Z,997.09
2018-03-30T09:23:52.842Z,997.10
2018-03-30T09:24:52.830Z,997.15
2018-03-30T09:25:52.834Z,997.10
2018-03-30T09:26:52.818Z,997.10
2018-03-30T09:27:52.812Z,997.07
2018-03-30T09:28:52.801Z,997.08
2018-03-30T09:29:52.807Z,997.03
2018-03-30T09:30:52.790Z,997.03
2018-03-30T09:31:52.797Z,997.03
2018-03-30T09:32:52.780Z,996.99
2018-03-30T09:33:52.786Z,996.98
2018-03-30T09:34:52.773Z,996.97
2018-03-30T09:35:52.763Z,996.97
2018-03-30T09:36:52.762Z,996.99
2018-03-30T09:37:52.766Z,996.96
2018-03-30T09:38:52.808Z,996.96
2018-03-30T09:39:52.763Z,996.92
2018-03-30T09:40:52.752Z,996.87
2018-03-30T09:41:52.737Z,996.90
2018-03-30T09:42:52.729Z,996.84
2018-03-30T09:43:52.726Z,996.82
2018-03-30T09:44:52.720Z,996.92
2018-03-30T09:45:52.715Z,996.81
2018-03-30T09:46:52.727Z,996.81
2018-03-30T09:47:52.716Z,996.78
2018-03-30T09:48:52.711Z,996.77
2018-03-30T09:49:52.706Z,996.74
2018-03-30T09:50:52.702Z,996.78
2018-03-30T09:51:52.686Z,996.74
2018-03-30T09:52:52.748Z,996.78
2018-03-30T09:53:52.676Z,996.75
2018-03-30T09:54:52.685Z,996.70
2018-03-30T09:55:52.678Z,996.61
2018-03-30T09:56:52.691Z,996.63
2018-03-30T09:57:52.667Z,996.63
2018-03-30T09:58:52.669Z,996.69
2018-03-30T09:59:52.674Z,996.62
2018-03-30T10:00:52.659Z,996.59
2018-03-30T10:03:25.390Z,996.64
2018-03-30T10:04:25.075Z,996.61
2018-03-30T10:06:19.048Z,996.47
2018-03-30T10:07:18.662Z,996.50
2018-03-30T10:09:12.717Z,996.48
2018-03-30T10:10:12.472Z,996.48
2018-03-30T10:12:06.984Z,996.49
2018-03-30T10:13:06.068Z,996.38
2018-03-30T10:15:21.592Z,996.41
